Walker, Minnesota
Current Conditions -  °F | °C
As of 9:35 PM on Monday 20 Oct 2014 (Local Time) from KY49 Reporting Station
Clear Clear  
Wind Chill: 37°   Ceiling: Unl
Heat Index: 40°   Visibility: 10mi
Dew Point: 38°   Wind: 5mph
Humidity: 92%   Direction: 70°ENE
Pressure: 30.09"   Gusts: NA
Location:  47.1°N, 94.59°W
Report Text: KY49 210235Z AUTO 07004KT 10SM CLR 05/03 A3009 RMK AO2 T00450033
Loading
Personal Weather Stations






























Interactive Weather Map
Tropical Storm Tracking
New forecast layout! Learn more

10-Day Weather Forecast

Advertisements
Track Severe Weather on mobile